createdAt,value
2023-01-04T00:00:44.361Z,6.95
2023-01-04T00:03:14.534Z,6.73
2023-01-04T00:05:44.137Z,6.64
2023-01-04T00:08:13.722Z,6.64
2023-01-04T00:10:43.284Z,6.74
2023-01-04T00:13:15.510Z,6.68
2023-01-04T00:15:45.132Z,6.77
2023-01-04T00:18:14.809Z,7.16
2023-01-04T00:20:44.309Z,6.94
2023-01-04T00:23:13.864Z,6.84
2023-01-04T00:25:43.927Z,7.04
2023-01-04T00:28:16.066Z,6.91
2023-01-04T00:30:45.898Z,7.04
2023-01-04T00:33:15.749Z,7.20
2023-01-04T00:35:46.633Z,7.30
2023-01-04T00:38:16.261Z,7.25
2023-01-04T00:40:46.030Z,7.35
2023-01-04T00:43:18.177Z,7.20
2023-01-04T00:45:48.033Z,7.37
2023-01-04T00:48:17.643Z,7.54
2023-01-04T00:50:47.389Z,7.45
2023-01-04T00:53:18.454Z,7.05
2023-01-04T00:55:48.449Z,7.13
2023-01-04T00:58:20.549Z,7.34
2023-01-04T01:00:50.084Z,7.20
2023-01-04T01:03:19.823Z,7.50
2023-01-04T01:05:49.454Z,7.29
2023-01-04T01:08:28.149Z,7.33
2023-01-04T01:10:58.238Z,7.61
2023-01-04T01:13:30.426Z,7.29
2023-01-04T01:16:04.708Z,6.70
2023-01-04T01:18:34.607Z,6.99
2023-01-04T01:21:07.532Z,7.13
2023-01-04T01:23:37.751Z,7.07
2023-01-04T01:26:11.339Z,7.32
2023-01-04T01:28:43.856Z,7.51
2023-01-04T01:31:16.901Z,7.29
2023-01-04T01:33:48.419Z,7.37
2023-01-04T01:36:19.618Z,7.31
2023-01-04T01:38:49.552Z,7.44
2023-01-04T01:41:22.341Z,7.37
2023-01-04T01:43:57.512Z,7.32
2023-01-04T01:46:32.302Z,7.28
2023-01-04T01:49:05.569Z,7.38
2023-01-04T01:51:36.734Z,7.39
2023-01-04T01:54:09.681Z,7.28
2023-01-04T01:56:42.357Z,7.29
2023-01-04T01:59:17.476Z,7.28
2023-01-04T02:01:47.900Z,7.29
2023-01-04T02:04:18.962Z,7.16
2023-01-04T02:06:51.496Z,7.21
2023-01-04T02:09:23.179Z,7.21
2023-01-04T02:11:52.718Z,7.29
2023-01-04T02:14:31.455Z,7.31
2023-01-04T02:17:11.839Z,7.49
2023-01-04T02:20:18.639Z,7.49
2023-01-04T02:23:21.736Z,7.48
2023-01-04T02:26:27.237Z,7.42
2023-01-04T02:29:22.573Z,7.31
2023-01-04T02:31:59.259Z,7.43
2023-01-04T02:34:37.461Z,7.35
2023-01-04T02:37:14.564Z,7.24
2023-01-04T02:39:51.489Z,7.24
2023-01-04T02:42:49.744Z,7.19
2023-01-04T02:45:20.291Z,7.12
2023-01-04T02:48:07.814Z,7.02
2023-01-04T02:50:40.510Z,6.98
2023-01-04T02:53:15.565Z,6.79
2023-01-04T02:55:52.128Z,6.77
2023-01-04T02:58:39.755Z,6.91
2023-01-04T03:01:29.757Z,6.77
2023-01-04T03:04:28.830Z,7.14
2023-01-04T03:07:05.383Z,7.21
2023-01-04T03:09:38.244Z,7.30
2023-01-04T03:12:23.593Z,7.34
2023-01-04T03:14:54.914Z,7.28
2023-01-04T03:17:27.535Z,7.09
2023-01-04T03:20:01.939Z,6.93
2023-01-04T03:22:49.528Z,7.12
2023-01-04T03:25:35.966Z,6.98
2023-01-04T03:28:20.967Z,7.10
2023-01-04T03:31:12.622Z,7.18
2023-01-04T03:33:55.162Z,7.06
2023-01-04T03:36:40.321Z,7.11
2023-01-04T03:39:31.395Z,7.20
2023-01-04T03:42:16.804Z,7.18
2023-01-04T03:45:10.538Z,7.28
2023-01-04T03:47:59.698Z,7.22
2023-01-04T03:50:34.468Z,7.40
2023-01-04T03:53:07.653Z,7.49
2023-01-04T03:55:39.808Z,7.34
2023-01-04T03:58:09.380Z,7.39
2023-01-04T04:00:39.232Z,7.56
2023-01-04T04:03:12.301Z,7.69
2023-01-04T04:05:57.269Z,7.47
2023-01-04T04:08:30.385Z,7.89
2023-01-04T04:11:21.655Z,7.96
2023-01-04T04:13:51.986Z,7.84
2023-01-04T04:16:21.682Z,8.05
2023-01-04T04:18:51.601Z,8.07
2023-01-04T04:21:21.167Z,7.91
2023-01-04T04:23:53.388Z,8.19
2023-01-04T04:26:23.629Z,8.17
2023-01-04T04:28:54.262Z,8.19
2023-01-04T04:31:23.900Z,8.13
2023-01-04T04:33:53.509Z,8.06
2023-01-04T04:36:23.286Z,8.14
2023-01-04T04:38:55.407Z,8.33
2023-01-04T04:41:37.511Z,8.28
2023-01-04T04:44:07.989Z,8.06
2023-01-04T04:46:37.717Z,8.16
2023-01-04T04:49:08.568Z,8.21
2023-01-04T04:51:38.576Z,8.37
2023-01-04T04:54:12.767Z,8.31
2023-01-04T04:56:42.517Z,8.25
2023-01-04T04:59:12.069Z,8.26
2023-01-04T05:01:41.662Z,8.50
2023-01-04T05:04:16.500Z,8.37
2023-01-04T05:06:46.757Z,8.25
2023-01-04T05:09:19.736Z,8.29
2023-01-04T05:12:01.926Z,8.26
2023-01-04T05:14:31.642Z,8.36
2023-01-04T05:17:01.323Z,8.31
2023-01-04T05:19:31.144Z,8.11
2023-01-04T05:22:00.683Z,8.03
2023-01-04T05:24:32.793Z,8.00
2023-01-04T05:27:02.325Z,7.92
2023-01-04T05:29:44.412Z,7.79
2023-01-04T05:32:14.077Z,7.82
2023-01-04T05:34:43.665Z,8.09
2023-01-04T05:37:13.241Z,8.27
2023-01-04T05:39:45.798Z,7.91
2023-01-04T05:42:30.603Z,7.92
2023-01-04T05:45:01.407Z,7.78
2023-01-04T05:47:31.847Z,7.90
2023-01-04T05:50:01.488Z,7.86
2023-01-04T05:52:31.258Z,7.96
2023-01-04T05:55:03.441Z,7.93
2023-01-04T05:57:33.200Z,7.94
2023-01-04T06:00:05.040Z,7.86
2023-01-04T06:02:42.376Z,7.89
2023-01-04T06:05:12.570Z,7.89
2023-01-04T06:07:43.243Z,7.89
2023-01-04T06:10:17.329Z,7.91
2023-01-04T06:12:47.128Z,7.81
2023-01-04T06:15:17.716Z,7.96
2023-01-04T06:17:47.248Z,7.90
2023-01-04T06:20:16.833Z,8.03
2023-01-04T06:22:46.367Z,7.88
2023-01-04T06:25:18.926Z,7.96
2023-01-04T06:27:48.645Z,7.98
2023-01-04T06:30:18.208Z,7.96
2023-01-04T06:32:47.762Z,7.99
2023-01-04T06:35:17.400Z,7.94
2023-01-04T06:37:46.984Z,8.10
2023-01-04T06:40:19.111Z,8.10
2023-01-04T06:42:48.629Z,7.92
2023-01-04T06:45:18.908Z,7.97
2023-01-04T06:47:48.527Z,7.97
2023-01-04T06:50:18.146Z,7.95
2023-01-04T06:52:47.717Z,8.03
2023-01-04T06:55:20.193Z,8.02
2023-01-04T06:57:51.390Z,8.05
2023-01-04T07:00:23.998Z,8.16
2023-01-04T07:03:15.485Z,8.10
2023-01-04T07:05:43.228Z,8.12
2023-01-04T07:08:13.049Z,8.18
2023-01-04T07:10:45.337Z,8.06
2023-01-04T07:13:15.032Z,8.12
2023-01-04T07:15:44.715Z,8.12
2023-01-04T07:18:14.580Z,8.13
2023-01-04T07:20:44.124Z,8.09
2023-01-04T07:23:13.656Z,8.05
2023-01-04T07:25:45.747Z,8.17
2023-01-04T07:28:35.471Z,8.16
2023-01-04T07:31:10.327Z,8.20
2023-01-04T07:33:40.538Z,8.09
2023-01-04T07:36:11.251Z,8.13
2023-01-04T07:38:40.856Z,8.06
2023-01-04T07:41:13.050Z,8.13
2023-01-04T07:43:42.618Z,8.26
2023-01-04T07:46:12.365Z,8.19
2023-01-04T07:48:41.993Z,8.23
2023-01-04T07:51:11.574Z,8.39
2023-01-04T07:53:41.134Z,8.33
2023-01-04T07:56:18.582Z,8.42
2023-01-04T07:58:48.472Z,8.28
2023-01-04T08:01:19.519Z,8.31
2023-01-04T08:03:50.519Z,8.62
2023-01-04T08:06:21.279Z,8.47
2023-01-04T08:08:51.450Z,8.61
2023-01-04T08:11:24.686Z,8.60
2023-01-04T08:13:55.294Z,8.75
2023-01-04T08:16:27.745Z,8.76
2023-01-04T08:18:58.263Z,9.03
2023-01-04T08:21:28.632Z,8.91
2023-01-04T08:23:58.896Z,8.80
2023-01-04T08:26:31.502Z,8.85
2023-01-04T08:29:01.144Z,8.64
2023-01-04T08:31:32.582Z,8.71
2023-01-04T08:34:05.190Z,8.89
2023-01-04T08:36:36.598Z,8.96
2023-01-04T08:39:09.248Z,8.91
2023-01-04T08:42:04.237Z,8.84
2023-01-04T08:44:40.400Z,9.05
2023-01-04T08:47:10.314Z,9.17
2023-01-04T08:49:39.892Z,9.02
2023-01-04T08:52:10.126Z,9.08
2023-01-04T08:54:39.739Z,9.21
2023-01-04T08:57:11.933Z,9.08
2023-01-04T08:59:41.483Z,8.99
2023-01-04T09:02:22.783Z,8.97
2023-01-04T09:04:53.162Z,9.27
2023-01-04T09:07:22.847Z,9.22
2023-01-04T09:09:52.411Z,9.40
2023-01-04T09:12:24.580Z,9.22
2023-01-04T09:14:54.233Z,9.12
2023-01-04T09:17:24.447Z,9.33
2023-01-04T09:19:54.011Z,9.27
2023-01-04T09:22:23.627Z,9.13
2023-01-04T09:24:55.338Z,9.33
2023-01-04T09:27:27.551Z,9.35
2023-01-04T09:29:57.278Z,9.40
2023-01-04T09:32:26.807Z,9.35
2023-01-04T09:34:56.426Z,9.23
2023-01-04T09:37:26.068Z,9.56
2023-01-04T09:39:55.601Z,9.57
2023-01-04T09:42:37.223Z,9.62
2023-01-04T09:45:24.259Z,9.86
2023-01-04T09:47:58.284Z,9.73
2023-01-04T09:50:31.966Z,9.81
2023-01-04T09:53:07.653Z,9.67
2023-01-04T09:55:41.796Z,9.80
2023-01-04T09:58:28.543Z,9.70
2023-01-04T10:01:04.896Z,10.15
2023-01-04T10:03:38.816Z,10.20
2023-01-04T10:06:10.000Z,10.32
2023-01-04T10:08:39.684Z,10.24
2023-01-04T10:11:20.842Z,10.11
2023-01-04T10:14:15.118Z,10.06
2023-01-04T10:17:20.297Z,9.74
2023-01-04T10:23:20.682Z,9.76
2023-01-04T10:25:57.520Z,10.00
2023-01-04T10:28:45.374Z,10.11
2023-01-04T10:31:40.280Z,10.33
2023-01-04T10:34:24.149Z,10.35
2023-01-04T10:36:56.576Z,10.41
2023-01-04T10:39:32.788Z,10.36
2023-01-04T10:42:09.663Z,10.33
2023-01-04T10:44:46.077Z,10.77
2023-01-04T10:47:25.119Z,10.67
2023-01-04T10:49:58.477Z,10.59
2023-01-04T10:52:33.316Z,10.55
2023-01-04T10:55:06.647Z,10.54
2023-01-04T10:57:42.159Z,10.66
2023-01-04T11:00:18.488Z,10.62
2023-01-04T11:02:59.040Z,10.48
2023-01-04T11:05:35.733Z,10.46
2023-01-04T11:08:10.861Z,10.26
2023-01-04T11:10:45.518Z,10.38
2023-01-04T11:13:15.615Z,10.57
2023-01-04T11:15:45.739Z,10.19
2023-01-04T11:18:19.339Z,10.20
2023-01-04T11:20:49.119Z,10.19
2023-01-04T11:23:20.504Z,10.27
2023-01-04T11:25:56.152Z,10.34
2023-01-04T11:28:30.944Z,10.28
2023-01-04T11:31:08.499Z,10.38
2023-01-04T11:33:59.671Z,10.53
2023-01-04T11:36:38.549Z,10.47
2023-01-04T11:39:21.683Z,10.36
2023-01-04T11:42:02.958Z,10.33
2023-01-04T11:44:34.738Z,10.36
2023-01-04T11:47:11.948Z,10.46
2023-01-04T11:49:44.081Z,10.82
2023-01-04T11:52:31.898Z,10.48
2023-01-04T11:55:19.394Z,10.40
2023-01-04T11:57:48.925Z,10.58
2023-01-04T12:00:19.830Z,10.82
2023-01-04T12:03:04.692Z,10.79
2023-01-04T12:05:36.919Z,10.89
2023-01-04T12:08:06.805Z,10.70
2023-01-04T12:10:36.391Z,10.79
2023-01-04T12:13:05.972Z,10.68
2023-01-04T12:15:42.814Z,10.71
2023-01-04T12:18:22.024Z,10.85
2023-01-04T12:20:54.335Z,10.86
2023-01-04T12:23:23.933Z,10.74
2023-01-04T12:25:55.541Z,10.78
2023-01-04T12:28:32.763Z,10.99
2023-01-04T12:31:33.815Z,11.27
2023-01-04T12:34:34.624Z,11.23
2023-01-04T12:37:08.198Z,11.29
2023-01-04T12:39:44.391Z,11.24
2023-01-04T12:42:19.294Z,11.40
2023-01-04T12:45:24.807Z,11.39
2023-01-04T12:48:09.799Z,11.42
2023-01-04T12:51:33.233Z,11.36
2023-01-04T12:54:07.769Z,11.56
2023-01-04T12:57:07.917Z,11.76
2023-01-04T12:59:39.568Z,11.84
2023-01-04T13:02:22.441Z,11.77
2023-01-04T13:05:09.700Z,11.83
2023-01-04T13:07:46.659Z,11.86
2023-01-04T13:10:34.160Z,11.87
2023-01-04T13:13:28.518Z,11.96
2023-01-04T13:16:19.982Z,11.95
2023-01-04T13:18:51.695Z,11.74
2023-01-04T13:21:30.096Z,11.71
2023-01-04T13:24:02.994Z,11.82
2023-01-04T13:26:38.993Z,11.68
2023-01-04T13:29:10.932Z,11.55
2023-01-04T13:31:57.164Z,11.49
2023-01-04T13:34:30.392Z,11.63
2023-01-04T13:37:08.966Z,11.63
2023-01-04T13:39:39.502Z,11.70
2023-01-04T13:42:25.910Z,11.72
2023-01-04T13:45:18.970Z,11.67
2023-01-04T13:47:51.972Z,11.65
2023-01-04T13:50:30.868Z,11.62
2023-01-04T13:53:06.812Z,11.66
2023-01-04T13:55:38.875Z,11.65
2023-01-04T13:58:20.640Z,11.78
2023-01-04T14:00:54.389Z,11.77
2023-01-04T14:03:29.831Z,11.67
2023-01-04T14:06:13.746Z,11.71
2023-01-04T14:08:48.581Z,11.80
2023-01-04T14:11:42.597Z,11.79
2023-01-04T14:14:25.691Z,11.83
2023-01-04T14:17:11.538Z,11.72
2023-01-04T14:19:46.444Z,11.74
2023-01-04T14:22:42.968Z,11.80
2023-01-04T14:28:49.789Z,11.72
2023-01-04T14:31:30.333Z,11.65
2023-01-04T14:34:00.421Z,11.60
2023-01-04T14:36:32.622Z,11.52
2023-01-04T14:39:13.849Z,11.43
2023-01-04T14:41:46.049Z,11.43
2023-01-04T14:44:17.794Z,11.45
2023-01-04T14:46:52.588Z,11.57
2023-01-04T14:49:22.934Z,11.52
2023-01-04T14:51:55.038Z,11.50
2023-01-04T14:54:26.262Z,11.52
2023-01-04T14:56:56.567Z,11.41
2023-01-04T14:59:27.219Z,11.41
2023-01-04T15:02:00.582Z,11.43
2023-01-04T15:04:30.317Z,11.48
2023-01-04T15:07:01.650Z,11.51
2023-01-04T15:09:31.954Z,11.49
2023-01-04T15:12:01.649Z,11.49
2023-01-04T15:14:31.191Z,11.53
2023-01-04T15:17:03.360Z,11.59
2023-01-04T15:19:37.725Z,11.56
2023-01-04T15:22:07.975Z,11.61
2023-01-04T15:24:37.570Z,11.45
2023-01-04T15:27:07.145Z,11.52
2023-01-04T15:29:37.349Z,11.52
2023-01-04T15:32:10.046Z,11.58
2023-01-04T15:34:46.458Z,11.56
2023-01-04T15:37:23.431Z,11.34
2023-01-04T15:39:59.942Z,11.48
2023-01-04T15:42:44.237Z,11.56
2023-01-04T15:45:13.956Z,11.63
2023-01-04T15:47:46.177Z,11.50
2023-01-04T15:50:15.742Z,11.38
2023-01-04T15:52:45.437Z,11.42
2023-01-04T15:55:15.773Z,11.40
2023-01-04T15:57:45.706Z,11.50
2023-01-04T16:00:17.035Z,11.45
2023-01-04T16:02:49.460Z,11.38
2023-01-04T16:05:20.846Z,11.30
2023-01-04T16:07:50.925Z,11.24
2023-01-04T16:10:20.749Z,11.17
2023-01-04T16:12:56.810Z,11.14
2023-01-04T16:15:26.935Z,11.13
2023-01-04T16:17:59.564Z,11.08
2023-01-04T16:20:29.120Z,11.03
2023-01-04T16:22:58.679Z,11.07
2023-01-04T16:25:28.362Z,11.05
2023-01-04T16:27:57.952Z,11.09
2023-01-04T16:30:29.813Z,11.07
2023-01-04T16:33:02.314Z,11.01
2023-01-04T16:35:31.865Z,11.01
2023-01-04T16:38:02.124Z,10.96
2023-01-04T16:40:31.684Z,10.94
2023-01-04T16:43:01.294Z,10.85
2023-01-04T16:45:30.836Z,10.84
2023-01-04T16:48:02.994Z,10.74
2023-01-04T16:50:32.619Z,10.77
2023-01-04T16:53:02.186Z,10.84
2023-01-04T16:55:31.712Z,10.85
2023-01-04T16:58:01.231Z,10.73
2023-01-04T17:00:30.908Z,10.70
2023-01-04T17:03:03.230Z,10.68
2023-01-04T17:05:32.799Z,10.76
2023-01-04T17:08:02.353Z,10.66
2023-01-04T17:10:31.964Z,10.77
2023-01-04T17:13:01.928Z,10.88
2023-01-04T17:15:43.030Z,10.95
2023-01-04T17:18:20.872Z,11.06
2023-01-04T17:21:11.044Z,11.10
2023-01-04T17:23:47.349Z,11.14
2023-01-04T17:26:19.454Z,11.18
2023-01-04T17:28:49.115Z,11.16
2023-01-04T17:31:21.475Z,11.20
2023-01-04T17:33:54.595Z,11.20
2023-01-04T17:36:25.215Z,11.17
2023-01-04T17:38:55.240Z,11.23
2023-01-04T17:41:26.410Z,11.22
2023-01-04T17:44:00.295Z,11.25
2023-01-04T17:46:31.987Z,11.32
2023-01-04T17:49:24.092Z,11.31
2023-01-04T17:51:57.380Z,11.35
2023-01-04T17:54:27.258Z,11.31
2023-01-04T17:56:56.951Z,11.25
2023-01-04T17:59:26.563Z,11.25
2023-01-04T18:01:56.214Z,11.18
2023-01-04T18:04:28.687Z,11.06
2023-01-04T18:06:58.286Z,10.97
2023-01-04T18:09:27.838Z,10.87
2023-01-04T18:11:57.432Z,10.90
2023-01-04T18:14:27.747Z,10.89
2023-01-04T18:17:00.360Z,10.86
2023-01-04T18:19:33.388Z,10.86
2023-01-04T18:22:03.217Z,11.13
2023-01-04T18:24:36.840Z,11.15
2023-01-04T18:27:24.993Z,11.13
2023-01-04T18:29:57.184Z,11.20
2023-01-04T18:32:28.332Z,11.17
2023-01-04T18:35:04.509Z,11.21
2023-01-04T18:37:34.292Z,11.16
2023-01-04T18:40:04.008Z,11.22
2023-01-04T18:42:34.415Z,11.12
2023-01-04T18:45:04.189Z,11.19
2023-01-04T18:47:33.722Z,11.20
2023-01-04T18:50:05.839Z,11.26
2023-01-04T18:52:35.532Z,11.29
2023-01-04T18:55:06.104Z,11.39
2023-01-04T18:57:36.736Z,11.40
2023-01-04T19:00:07.418Z,11.45
2023-01-04T19:02:37.142Z,11.56
2023-01-04T19:05:10.486Z,11.62
2023-01-04T19:07:41.571Z,11.69
2023-01-04T19:10:11.943Z,11.80
2023-01-04T19:12:42.815Z,11.86
2023-01-04T19:15:13.588Z,11.76
2023-01-04T19:17:43.146Z,11.84
2023-01-04T19:20:15.704Z,11.82
2023-01-04T19:22:45.253Z,11.84
2023-01-04T19:25:14.789Z,11.78
2023-01-04T19:27:44.368Z,11.84
2023-01-04T19:30:15.603Z,11.84
2023-01-04T19:32:47.755Z,11.63
2023-01-04T19:35:19.945Z,11.45
2023-01-04T19:37:49.501Z,11.32
2023-01-04T19:40:19.374Z,11.22
2023-01-04T19:42:49.156Z,11.09
2023-01-04T19:45:19.146Z,11.00
2023-01-04T19:47:52.144Z,10.92
2023-01-04T19:50:24.426Z,10.90
2023-01-04T19:52:53.968Z,10.77
2023-01-04T19:55:24.548Z,10.82
2023-01-04T19:57:54.183Z,10.77
2023-01-04T20:00:24.033Z,10.79
2023-01-04T20:02:53.730Z,10.76
2023-01-04T20:05:25.984Z,10.80
2023-01-04T20:07:55.611Z,10.77
2023-01-04T20:10:25.245Z,10.74
2023-01-04T20:12:54.804Z,10.75
2023-01-04T20:15:24.441Z,10.77
2023-01-04T20:17:54.009Z,10.76
2023-01-04T20:20:26.352Z,10.74
2023-01-04T20:22:56.020Z,10.73
2023-01-04T20:25:25.641Z,10.84
2023-01-04T20:27:55.236Z,10.77
2023-01-04T20:30:24.957Z,10.75
2023-01-04T20:32:54.529Z,10.79
2023-01-04T20:35:27.175Z,10.81
2023-01-04T20:37:56.841Z,10.67
2023-01-04T20:40:27.285Z,10.68
2023-01-04T20:43:09.823Z,10.74
2023-01-04T20:45:44.158Z,10.73
2023-01-04T20:48:14.509Z,10.78
2023-01-04T20:50:49.220Z,11.02
2023-01-04T20:53:18.810Z,11.14
2023-01-04T20:55:48.624Z,11.12
2023-01-04T20:58:19.187Z,11.11
2023-01-04T21:00:49.162Z,11.18
2023-01-04T21:03:19.033Z,11.11
2023-01-04T21:05:51.394Z,11.11
2023-01-04T21:08:21.027Z,11.28
2023-01-04T21:10:50.656Z,11.29
2023-01-04T21:13:20.181Z,11.37
2023-01-04T21:15:49.984Z,11.37
2023-01-04T21:18:19.995Z,11.28
2023-01-04T21:20:52.724Z,11.37
2023-01-04T21:23:24.216Z,11.35
2023-01-04T21:25:53.843Z,11.35
2023-01-04T21:28:24.491Z,11.35
2023-01-04T21:30:54.071Z,11.38
2023-01-04T21:33:24.983Z,11.36
2023-01-04T21:35:57.128Z,11.43
2023-01-04T21:38:26.640Z,11.51
2023-01-04T21:40:56.153Z,11.51
2023-01-04T21:43:25.686Z,11.51
2023-01-04T21:45:55.194Z,11.48
2023-01-04T21:48:24.792Z,11.45
2023-01-04T21:50:57.010Z,11.47
2023-01-04T21:53:26.521Z,11.49
2023-01-04T21:56:00.791Z,11.59
2023-01-04T21:58:31.357Z,11.51
2023-01-04T22:01:01.055Z,11.47
2023-01-04T22:03:30.574Z,11.45
2023-01-04T22:06:06.833Z,11.40
2023-01-04T22:08:37.158Z,11.46
2023-01-04T22:11:07.876Z,11.39
2023-01-04T22:13:37.402Z,11.36
2023-01-04T22:16:11.487Z,11.27
2023-01-04T22:18:41.216Z,11.34
2023-01-04T22:21:15.306Z,11.26
2023-01-04T22:23:45.095Z,11.24
2023-01-04T22:26:14.658Z,11.16
2023-01-04T22:28:44.374Z,11.14
2023-01-04T22:31:15.722Z,11.16
2023-01-04T22:33:45.688Z,11.11
2023-01-04T22:36:22.898Z,11.09
2023-01-04T22:38:53.497Z,11.06
2023-01-04T22:41:24.925Z,11.00
2023-01-04T22:43:59.101Z,11.11
2023-01-04T22:46:30.303Z,11.00
2023-01-04T22:49:00.431Z,10.93
2023-01-04T22:51:33.764Z,10.97
2023-01-04T22:54:05.810Z,11.07
2023-01-04T22:56:35.536Z,11.04
2023-01-04T22:59:05.127Z,11.01
2023-01-04T23:01:35.959Z,10.96
2023-01-04T23:04:05.942Z,11.00
2023-01-04T23:06:38.112Z,11.06
2023-01-04T23:09:10.378Z,11.08
2023-01-04T23:11:41.111Z,11.16
2023-01-04T23:14:14.901Z,11.14
2023-01-04T23:16:44.864Z,11.09
2023-01-04T23:19:15.883Z,11.16
2023-01-04T23:21:48.041Z,11.10
2023-01-04T23:24:18.481Z,11.10
2023-01-04T23:26:48.009Z,11.17
2023-01-04T23:29:17.538Z,11.17
2023-01-04T23:31:47.158Z,11.14
2023-01-04T23:34:16.717Z,11.11
2023-01-04T23:36:48.929Z,11.13
2023-01-04T23:39:19.049Z,11.15
2023-01-04T23:41:48.615Z,11.25
2023-01-04T23:46:54.343Z,11.25
2023-01-04T23:49:24.629Z,11.22
2023-01-04T23:51:59.471Z,11.22
2023-01-04T23:54:29.881Z,11.17
2023-01-04T23:57:00.293Z,11.23
2023-01-04T23:59:30.014Z,11.19
